sensor_id;sensor_type;location;lat;lon;timestamp;P1;durP1;ratioP1;P2;durP2;ratioP2
16640;SDS011;8434;47.990;7.880;2024-02-21T00:01:34;3.70;;;2.03;;
16640;SDS011;8434;47.990;7.880;2024-02-21T00:04:23;3.50;;;1.80;;
16640;SDS011;8434;47.990;7.880;2024-02-21T00:07:08;5.73;;;2.40;;
16640;SDS011;8434;47.990;7.880;2024-02-21T00:09:53;7.50;;;2.53;;
16640;SDS011;8434;47.990;7.880;2024-02-21T00:12:39;3.30;;;2.27;;
16640;SDS011;8434;47.990;7.880;2024-02-21T00:15:24;5.10;;;2.27;;
16640;SDS011;8434;47.990;7.880;2024-02-21T00:18:10;4.40;;;1.93;;
16640;SDS011;8434;47.990;7.880;2024-02-21T00:20:57;7.97;;;3.43;;
16640;SDS011;8434;47.990;7.880;2024-02-21T00:23:42;11.53;;;3.20;;
16640;SDS011;8434;47.990;7.880;2024-02-21T00:26:29;4.53;;;2.40;;
16640;SDS011;8434;47.990;7.880;2024-02-21T00:29:15;3.23;;;2.30;;
16640;SDS011;8434;47.990;7.880;2024-02-21T00:32:00;9.57;;;3.83;;
16640;SDS011;8434;47.990;7.880;2024-02-21T00:34:46;4.03;;;2.07;;
16640;SDS011;8434;47.990;7.880;2024-02-21T00:37:32;3.47;;;2.10;;
16640;SDS011;8434;47.990;7.880;2024-02-21T00:40:18;3.07;;;1.77;;
16640;SDS011;8434;47.990;7.880;2024-02-21T00:43:05;5.03;;;2.47;;
16640;SDS011;8434;47.990;7.880;2024-02-21T00:45:51;7.47;;;2.23;;
16640;SDS011;8434;47.990;7.880;2024-02-21T00:48:36;10.33;;;2.90;;
16640;SDS011;8434;47.990;7.880;2024-02-21T00:51:22;5.87;;;2.40;;
16640;SDS011;8434;47.990;7.880;2024-02-21T00:54:09;7.13;;;2.87;;
16640;SDS011;8434;47.990;7.880;2024-02-21T00:56:54;7.87;;;2.77;;
16640;SDS011;8434;47.990;7.880;2024-02-21T00:59:40;7.00;;;2.70;;
16640;SDS011;8434;47.990;7.880;2024-02-21T01:02:25;5.83;;;2.73;;
16640;SDS011;8434;47.990;7.880;2024-02-21T01:05:11;5.93;;;2.93;;
16640;SDS011;8434;47.990;7.880;2024-02-21T01:07:57;6.13;;;2.30;;
16640;SDS011;8434;47.990;7.880;2024-02-21T01:10:44;8.73;;;2.83;;
16640;SDS011;8434;47.990;7.880;2024-02-21T01:13:29;4.20;;;2.13;;
16640;SDS011;8434;47.990;7.880;2024-02-21T01:16:15;4.77;;;2.53;;
16640;SDS011;8434;47.990;7.880;2024-02-21T01:19:00;4.30;;;2.13;;
16640;SDS011;8434;47.990;7.880;2024-02-21T01:21:46;7.03;;;2.60;;
16640;SDS011;8434;47.990;7.880;2024-02-21T01:24:31;6.10;;;2.50;;
16640;SDS011;8434;47.990;7.880;2024-02-21T01:27:18;6.17;;;2.03;;
16640;SDS011;8434;47.990;7.880;2024-02-21T01:30:04;2.67;;;2.20;;
16640;SDS011;8434;47.990;7.880;2024-02-21T01:32:49;7.60;;;3.37;;
16640;SDS011;8434;47.990;7.880;2024-02-21T01:35:35;3.97;;;1.83;;
16640;SDS011;8434;47.990;7.880;2024-02-21T01:38:20;3.57;;;2.30;;
16640;SDS011;8434;47.990;7.880;2024-02-21T01:41:06;5.63;;;2.40;;
16640;SDS011;8434;47.990;7.880;2024-02-21T01:43:53;6.43;;;2.63;;
16640;SDS011;8434;47.990;7.880;2024-02-21T01:46:38;5.87;;;2.07;;
16640;SDS011;8434;47.990;7.880;2024-02-21T01:49:24;3.47;;;2.17;;
16640;SDS011;8434;47.990;7.880;2024-02-21T01:52:10;9.13;;;2.10;;
16640;SDS011;8434;47.990;7.880;2024-02-21T01:54:57;7.03;;;2.10;;
16640;SDS011;8434;47.990;7.880;2024-02-21T01:57:43;6.03;;;2.57;;
16640;SDS011;8434;47.990;7.880;2024-02-21T02:00:33;4.70;;;2.30;;
16640;SDS011;8434;47.990;7.880;2024-02-21T02:03:18;5.10;;;2.30;;
16640;SDS011;8434;47.990;7.880;2024-02-21T02:06:04;7.40;;;2.53;;
16640;SDS011;8434;47.990;7.880;2024-02-21T02:08:50;4.63;;;2.03;;
16640;SDS011;8434;47.990;7.880;2024-02-21T02:11:35;4.07;;;2.17;;
16640;SDS011;8434;47.990;7.880;2024-02-21T02:14:21;4.53;;;2.20;;
16640;SDS011;8434;47.990;7.880;2024-02-21T02:17:07;6.10;;;2.50;;
16640;SDS011;8434;47.990;7.880;2024-02-21T02:19:53;6.73;;;2.63;;
16640;SDS011;8434;47.990;7.880;2024-02-21T02:22:39;6.00;;;2.30;;
16640;SDS011;8434;47.990;7.880;2024-02-21T02:25:28;3.70;;;2.20;;
16640;SDS011;8434;47.990;7.880;2024-02-21T02:28:14;2.50;;;2.00;;
16640;SDS011;8434;47.990;7.880;2024-02-21T02:30:59;3.60;;;2.03;;
16640;SDS011;8434;47.990;7.880;2024-02-21T02:33:44;2.97;;;1.93;;
16640;SDS011;8434;47.990;7.880;2024-02-21T02:36:30;5.37;;;2.03;;
16640;SDS011;8434;47.990;7.880;2024-02-21T02:39:16;4.43;;;2.63;;
16640;SDS011;8434;47.990;7.880;2024-02-21T02:42:04;6.30;;;2.43;;
16640;SDS011;8434;47.990;7.880;2024-02-21T02:44:49;4.23;;;2.30;;
16640;SDS011;8434;47.990;7.880;2024-02-21T02:47:34;6.43;;;2.27;;
16640;SDS011;8434;47.990;7.880;2024-02-21T02:50:20;6.00;;;2.03;;
16640;SDS011;8434;47.990;7.880;2024-02-21T02:53:06;7.17;;;3.33;;
16640;SDS011;8434;47.990;7.880;2024-02-21T02:55:51;5.47;;;2.00;;
16640;SDS011;8434;47.990;7.880;2024-02-21T02:58:38;4.27;;;1.80;;
16640;SDS011;8434;47.990;7.880;2024-02-21T03:01:23;4.53;;;2.27;;
16640;SDS011;8434;47.990;7.880;2024-02-21T03:04:09;4.60;;;2.00;;
16640;SDS011;8434;47.990;7.880;2024-02-21T03:06:54;4.27;;;2.20;;
16640;SDS011;8434;47.990;7.880;2024-02-21T03:09:40;2.90;;;1.80;;
16640;SDS011;8434;47.990;7.880;2024-02-21T03:12:26;6.57;;;2.20;;
16640;SDS011;8434;47.990;7.880;2024-02-21T03:15:14;4.53;;;2.47;;
16640;SDS011;8434;47.990;7.880;2024-02-21T03:17:59;5.87;;;2.07;;
16640;SDS011;8434;47.990;7.880;2024-02-21T03:20:45;5.27;;;2.10;;
16640;SDS011;8434;47.990;7.880;2024-02-21T03:23:30;4.93;;;2.30;;
16640;SDS011;8434;47.990;7.880;2024-02-21T03:26:16;8.13;;;3.90;;
16640;SDS011;8434;47.990;7.880;2024-02-21T03:29:01;3.07;;;1.90;;
16640;SDS011;8434;47.990;7.880;2024-02-21T03:31:48;2.83;;;1.80;;
16640;SDS011;8434;47.990;7.880;2024-02-21T03:34:33;4.30;;;1.90;;
16640;SDS011;8434;47.990;7.880;2024-02-21T03:37:19;5.53;;;2.20;;
16640;SDS011;8434;47.990;7.880;2024-02-21T03:40:06;5.53;;;2.07;;
16640;SDS011;8434;47.990;7.880;2024-02-21T03:42:52;5.40;;;2.40;;
16640;SDS011;8434;47.990;7.880;2024-02-21T03:45:37;3.60;;;1.73;;
16640;SDS011;8434;47.990;7.880;2024-02-21T03:48:25;2.40;;;2.07;;
16640;SDS011;8434;47.990;7.880;2024-02-21T03:51:10;4.53;;;2.03;;
16640;SDS011;8434;47.990;7.880;2024-02-21T03:53:55;5.97;;;2.70;;
16640;SDS011;8434;47.990;7.880;2024-02-21T03:56:41;3.67;;;1.80;;
16640;SDS011;8434;47.990;7.880;2024-02-21T03:59:26;6.17;;;2.47;;
16640;SDS011;8434;47.990;7.880;2024-02-21T04:02:12;5.10;;;2.20;;
16640;SDS011;8434;47.990;7.880;2024-02-21T04:04:59;2.87;;;1.97;;
16640;SDS011;8434;47.990;7.880;2024-02-21T04:07:44;13.80;;;3.10;;
16640;SDS011;8434;47.990;7.880;2024-02-21T04:10:29;4.63;;;2.03;;
16640;SDS011;8434;47.990;7.880;2024-02-21T04:13:15;6.57;;;2.10;;
16640;SDS011;8434;47.990;7.880;2024-02-21T04:16:00;4.00;;;1.90;;
16640;SDS011;8434;47.990;7.880;2024-02-21T04:18:47;4.17;;;2.10;;
16640;SDS011;8434;47.990;7.880;2024-02-21T04:21:34;8.07;;;3.40;;
16640;SDS011;8434;47.990;7.880;2024-02-21T04:24:19;7.00;;;2.10;;
16640;SDS011;8434;47.990;7.880;2024-02-21T04:27:05;4.73;;;2.30;;
16640;SDS011;8434;47.990;7.880;2024-02-21T04:29:50;6.10;;;2.13;;
16640;SDS011;8434;47.990;7.880;2024-02-21T04:32:36;6.90;;;2.03;;
16640;SDS011;8434;47.990;7.880;2024-02-21T04:35:21;3.80;;;2.23;;
16640;SDS011;8434;47.990;7.880;2024-02-21T04:38:08;4.93;;;2.20;;
16640;SDS011;8434;47.990;7.880;2024-02-21T04:40:54;4.40;;;2.03;;
16640;SDS011;8434;47.990;7.880;2024-02-21T04:43:39;5.93;;;2.57;;
16640;SDS011;8434;47.990;7.880;2024-02-21T04:46:25;4.77;;;2.50;;
16640;SDS011;8434;47.990;7.880;2024-02-21T04:49:10;3.00;;;1.73;;
16640;SDS011;8434;47.990;7.880;2024-02-21T04:51:56;3.80;;;2.10;;
16640;SDS011;8434;47.990;7.880;2024-02-21T04:54:43;5.53;;;2.20;;
16640;SDS011;8434;47.990;7.880;2024-02-21T04:57:28;5.17;;;2.23;;
16640;SDS011;8434;47.990;7.880;2024-02-21T05:00:14;3.83;;;2.50;;
16640;SDS011;8434;47.990;7.880;2024-02-21T05:03:00;4.33;;;2.10;;
16640;SDS011;8434;47.990;7.880;2024-02-21T05:05:45;7.30;;;2.30;;
16640;SDS011;8434;47.990;7.880;2024-02-21T05:08:31;6.00;;;2.50;;
16640;SDS011;8434;47.990;7.880;2024-02-21T05:11:18;4.80;;;1.63;;
16640;SDS011;8434;47.990;7.880;2024-02-21T05:14:04;3.20;;;1.70;;
16640;SDS011;8434;47.990;7.880;2024-02-21T05:16:49;4.73;;;1.90;;
16640;SDS011;8434;47.990;7.880;2024-02-21T05:19:35;7.77;;;2.00;;
16640;SDS011;8434;47.990;7.880;2024-02-21T05:22:21;5.33;;;2.07;;
16640;SDS011;8434;47.990;7.880;2024-02-21T05:25:06;6.40;;;2.10;;
16640;SDS011;8434;47.990;7.880;2024-02-21T05:27:53;5.13;;;1.70;;
16640;SDS011;8434;47.990;7.880;2024-02-21T05:30:40;5.17;;;2.27;;
16640;SDS011;8434;47.990;7.880;2024-02-21T05:33:27;8.37;;;2.70;;
16640;SDS011;8434;47.990;7.880;2024-02-21T05:36:12;2.97;;;1.80;;
16640;SDS011;8434;47.990;7.880;2024-02-21T05:38:58;3.90;;;2.30;;
16640;SDS011;8434;47.990;7.880;2024-02-21T05:41:43;4.57;;;2.57;;
16640;SDS011;8434;47.990;7.880;2024-02-21T05:44:30;5.63;;;2.50;;
16640;SDS011;8434;47.990;7.880;2024-02-21T05:47:16;4.60;;;1.93;;
16640;SDS011;8434;47.990;7.880;2024-02-21T05:50:04;8.80;;;2.30;;
16640;SDS011;8434;47.990;7.880;2024-02-21T05:52:51;4.03;;;2.10;;
16640;SDS011;8434;47.990;7.880;2024-02-21T05:55:36;2.73;;;1.77;;
16640;SDS011;8434;47.990;7.880;2024-02-21T05:58:21;4.60;;;2.40;;
16640;SDS011;8434;47.990;7.880;2024-02-21T06:01:08;6.63;;;2.80;;
16640;SDS011;8434;47.990;7.880;2024-02-21T06:03:53;8.80;;;2.47;;
16640;SDS011;8434;47.990;7.880;2024-02-21T06:06:39;4.47;;;2.33;;
16640;SDS011;8434;47.990;7.880;2024-02-21T06:09:24;5.80;;;2.70;;
16640;SDS011;8434;47.990;7.880;2024-02-21T06:12:10;5.80;;;2.43;;
16640;SDS011;8434;47.990;7.880;2024-02-21T06:14:55;6.07;;;2.57;;
16640;SDS011;8434;47.990;7.880;2024-02-21T06:17:42;9.90;;;3.40;;
16640;SDS011;8434;47.990;7.880;2024-02-21T06:20:27;3.07;;;2.13;;
16640;SDS011;8434;47.990;7.880;2024-02-21T06:23:16;3.50;;;2.10;;
16640;SDS011;8434;47.990;7.880;2024-02-21T06:26:01;6.17;;;2.43;;
16640;SDS011;8434;47.990;7.880;2024-02-21T06:28:47;6.73;;;2.70;;
16640;SDS011;8434;47.990;7.880;2024-02-21T06:31:32;3.30;;;2.17;;
16640;SDS011;8434;47.990;7.880;2024-02-21T06:34:19;6.57;;;2.60;;
16640;SDS011;8434;47.990;7.880;2024-02-21T06:37:05;6.30;;;2.67;;
16640;SDS011;8434;47.990;7.880;2024-02-21T06:39:50;5.60;;;2.67;;
16640;SDS011;8434;47.990;7.880;2024-02-21T06:42:36;8.33;;;2.50;;
16640;SDS011;8434;47.990;7.880;2024-02-21T06:45:21;7.77;;;2.67;;
16640;SDS011;8434;47.990;7.880;2024-02-21T06:48:07;10.53;;;3.10;;
16640;SDS011;8434;47.990;7.880;2024-02-21T06:50:53;4.70;;;2.50;;
16640;SDS011;8434;47.990;7.880;2024-02-21T06:53:39;7.00;;;3.43;;
16640;SDS011;8434;47.990;7.880;2024-02-21T06:56:24;5.00;;;2.20;;
16640;SDS011;8434;47.990;7.880;2024-02-21T06:59:12;5.30;;;2.50;;
16640;SDS011;8434;47.990;7.880;2024-02-21T07:01:59;6.77;;;2.17;;
16640;SDS011;8434;47.990;7.880;2024-02-21T07:04:45;3.63;;;2.73;;
16640;SDS011;8434;47.990;7.880;2024-02-21T07:07:33;3.97;;;1.77;;
16640;SDS011;8434;47.990;7.880;2024-02-21T07:10:19;4.23;;;2.60;;
16640;SDS011;8434;47.990;7.880;2024-02-21T07:13:04;4.23;;;2.43;;
16640;SDS011;8434;47.990;7.880;2024-02-21T07:15:49;4.40;;;1.80;;
16640;SDS011;8434;47.990;7.880;2024-02-21T07:18:35;5.63;;;1.80;;
16640;SDS011;8434;47.990;7.880;2024-02-21T07:21:20;3.50;;;1.67;;
16640;SDS011;8434;47.990;7.880;2024-02-21T07:24:09;4.57;;;2.10;;
16640;SDS011;8434;47.990;7.880;2024-02-21T07:26:55;7.43;;;2.30;;
16640;SDS011;8434;47.990;7.880;2024-02-21T07:29:40;8.37;;;2.47;;
16640;SDS011;8434;47.990;7.880;2024-02-21T07:32:26;3.67;;;1.90;;
16640;SDS011;8434;47.990;7.880;2024-02-21T07:35:12;4.03;;;2.00;;
16640;SDS011;8434;47.990;7.880;2024-02-21T07:37:57;4.93;;;2.57;;
16640;SDS011;8434;47.990;7.880;2024-02-21T07:40:44;4.43;;;2.80;;
16640;SDS011;8434;47.990;7.880;2024-02-21T07:43:29;5.37;;;2.10;;
16640;SDS011;8434;47.990;7.880;2024-02-21T07:46:15;4.27;;;2.20;;
16640;SDS011;8434;47.990;7.880;2024-02-21T07:49:00;4.67;;;2.33;;
16640;SDS011;8434;47.990;7.880;2024-02-21T07:51:46;2.73;;;1.67;;
16640;SDS011;8434;47.990;7.880;2024-02-21T07:54:32;3.60;;;1.90;;
16640;SDS011;8434;47.990;7.880;2024-02-21T07:57:19;3.10;;;1.60;;
16640;SDS011;8434;47.990;7.880;2024-02-21T08:00:04;2.50;;;1.80;;
16640;SDS011;8434;47.990;7.880;2024-02-21T08:02:56;6.50;;;2.27;;
16640;SDS011;8434;47.990;7.880;2024-02-21T08:05:42;7.57;;;2.47;;
16640;SDS011;8434;47.990;7.880;2024-02-21T08:08:27;4.00;;;2.27;;
16640;SDS011;8434;47.990;7.880;2024-02-21T08:11:13;3.93;;;2.33;;
16640;SDS011;8434;47.990;7.880;2024-02-21T08:14:00;4.67;;;2.20;;
16640;SDS011;8434;47.990;7.880;2024-02-21T08:16:45;7.33;;;2.90;;
16640;SDS011;8434;47.990;7.880;2024-02-21T08:19:30;2.57;;;1.87;;
16640;SDS011;8434;47.990;7.880;2024-02-21T08:22:16;3.70;;;1.90;;
16640;SDS011;8434;47.990;7.880;2024-02-21T08:25:01;4.53;;;2.03;;
16640;SDS011;8434;47.990;7.880;2024-02-21T08:27:49;6.00;;;1.80;;
16640;SDS011;8434;47.990;7.880;2024-02-21T08:30:37;2.40;;;1.67;;
16640;SDS011;8434;47.990;7.880;2024-02-21T08:33:22;4.60;;;1.93;;
16640;SDS011;8434;47.990;7.880;2024-02-21T08:36:09;4.80;;;2.07;;
16640;SDS011;8434;47.990;7.880;2024-02-21T08:39:02;3.87;;;1.70;;
16640;SDS011;8434;47.990;7.880;2024-02-21T08:41:49;7.10;;;2.20;;
16640;SDS011;8434;47.990;7.880;2024-02-21T08:44:35;2.53;;;1.47;;
16640;SDS011;8434;47.990;7.880;2024-02-21T08:47:21;3.40;;;1.87;;
16640;SDS011;8434;47.990;7.880;2024-02-21T08:50:07;5.00;;;1.90;;
16640;SDS011;8434;47.990;7.880;2024-02-21T08:52:53;6.30;;;3.47;;
16640;SDS011;8434;47.990;7.880;2024-02-21T08:55:39;12.30;;;3.27;;
16640;SDS011;8434;47.990;7.880;2024-02-21T08:58:24;5.03;;;1.70;;
16640;SDS011;8434;47.990;7.880;2024-02-21T09:01:10;3.43;;;1.83;;
16640;SDS011;8434;47.990;7.880;2024-02-21T09:03:57;3.07;;;1.80;;
16640;SDS011;8434;47.990;7.880;2024-02-21T09:06:42;5.10;;;1.70;;
16640;SDS011;8434;47.990;7.880;2024-02-21T09:09:29;2.77;;;1.60;;
16640;SDS011;8434;47.990;7.880;2024-02-21T09:12:15;4.77;;;1.97;;
16640;SDS011;8434;47.990;7.880;2024-02-21T09:15:00;3.10;;;1.97;;
16640;SDS011;8434;47.990;7.880;2024-02-21T09:17:46;2.70;;;1.77;;
16640;SDS011;8434;47.990;7.880;2024-02-21T09:20:33;4.17;;;1.97;;
16640;SDS011;8434;47.990;7.880;2024-02-21T09:23:18;2.40;;;1.80;;
16640;SDS011;8434;47.990;7.880;2024-02-21T09:26:04;4.27;;;2.00;;
16640;SDS011;8434;47.990;7.880;2024-02-21T09:28:50;3.00;;;1.90;;
16640;SDS011;8434;47.990;7.880;2024-02-21T09:31:35;4.30;;;2.47;;
16640;SDS011;8434;47.990;7.880;2024-02-21T09:34:22;2.87;;;2.00;;
16640;SDS011;8434;47.990;7.880;2024-02-21T09:37:09;3.53;;;1.53;;
16640;SDS011;8434;47.990;7.880;2024-02-21T09:39:54;2.93;;;1.53;;
16640;SDS011;8434;47.990;7.880;2024-02-21T09:42:40;3.80;;;1.40;;
16640;SDS011;8434;47.990;7.880;2024-02-21T09:45:25;4.20;;;1.50;;
16640;SDS011;8434;47.990;7.880;2024-02-21T09:48:30;2.30;;;1.33;;
16640;SDS011;8434;47.990;7.880;2024-02-21T09:51:19;2.47;;;1.50;;
16640;SDS011;8434;47.990;7.880;2024-02-21T09:54:07;2.13;;;1.67;;
16640;SDS011;8434;47.990;7.880;2024-02-21T09:56:53;2.07;;;1.27;;
16640;SDS011;8434;47.990;7.880;2024-02-21T09:59:38;3.07;;;1.47;;
16640;SDS011;8434;47.990;7.880;2024-02-21T10:02:25;4.37;;;1.73;;
16640;SDS011;8434;47.990;7.880;2024-02-21T10:05:11;3.67;;;1.50;;
16640;SDS011;8434;47.990;7.880;2024-02-21T10:07:56;4.90;;;2.50;;
16640;SDS011;8434;47.990;7.880;2024-02-21T10:10:46;4.30;;;1.40;;
16640;SDS011;8434;47.990;7.880;2024-02-21T10:13:31;1.80;;;1.30;;
16640;SDS011;8434;47.990;7.880;2024-02-21T10:16:16;3.37;;;1.40;;
16640;SDS011;8434;47.990;7.880;2024-02-21T10:19:02;3.07;;;1.60;;
16640;SDS011;8434;47.990;7.880;2024-02-21T10:24:48;2.83;;;1.40;;
16640;SDS011;8434;47.990;7.880;2024-02-21T10:27:35;2.67;;;1.30;;
16640;SDS011;8434;47.990;7.880;2024-02-21T10:30:21;3.03;;;1.50;;
16640;SDS011;8434;47.990;7.880;2024-02-21T10:33:07;4.70;;;1.17;;
16640;SDS011;8434;47.990;7.880;2024-02-21T10:35:52;4.07;;;1.70;;
16640;SDS011;8434;47.990;7.880;2024-02-21T10:38:38;4.27;;;1.60;;
16640;SDS011;8434;47.990;7.880;2024-02-21T10:41:23;3.27;;;1.10;;
16640;SDS011;8434;47.990;7.880;2024-02-21T10:44:12;2.53;;;1.20;;
16640;SDS011;8434;47.990;7.880;2024-02-21T10:46:58;2.77;;;1.23;;
16640;SDS011;8434;47.990;7.880;2024-02-21T10:49:44;2.43;;;1.40;;
16640;SDS011;8434;47.990;7.880;2024-02-21T10:52:33;3.43;;;1.77;;
16640;SDS011;8434;47.990;7.880;2024-02-21T10:55:26;3.07;;;1.30;;
16640;SDS011;8434;47.990;7.880;2024-02-21T10:58:16;2.17;;;1.17;;
16640;SDS011;8434;47.990;7.880;2024-02-21T11:01:04;4.10;;;1.60;;
16640;SDS011;8434;47.990;7.880;2024-02-21T11:03:51;2.43;;;0.93;;
16640;SDS011;8434;47.990;7.880;2024-02-21T11:06:38;3.47;;;0.73;;
16640;SDS011;8434;47.990;7.880;2024-02-21T11:09:29;2.70;;;1.10;;
16640;SDS011;8434;47.990;7.880;2024-02-21T11:12:19;1.60;;;1.10;;
16640;SDS011;8434;47.990;7.880;2024-02-21T11:15:05;1.87;;;0.80;;
16640;SDS011;8434;47.990;7.880;2024-02-21T11:17:55;2.00;;;0.97;;
16640;SDS011;8434;47.990;7.880;2024-02-21T11:20:49;4.20;;;1.10;;
16640;SDS011;8434;47.990;7.880;2024-02-21T11:23:35;2.87;;;1.20;;
16640;SDS011;8434;47.990;7.880;2024-02-21T11:26:20;1.47;;;0.80;;
16640;SDS011;8434;47.990;7.880;2024-02-21T11:29:05;3.27;;;1.20;;
16640;SDS011;8434;47.990;7.880;2024-02-21T11:31:53;1.80;;;0.77;;
16640;SDS011;8434;47.990;7.880;2024-02-21T11:34:40;2.73;;;1.00;;
16640;SDS011;8434;47.990;7.880;2024-02-21T11:37:25;1.43;;;0.77;;
16640;SDS011;8434;47.990;7.880;2024-02-21T11:40:12;3.27;;;1.23;;
16640;SDS011;8434;47.990;7.880;2024-02-21T11:42:58;1.63;;;0.90;;
16640;SDS011;8434;47.990;7.880;2024-02-21T11:45:44;2.93;;;0.87;;
16640;SDS011;8434;47.990;7.880;2024-02-21T11:48:29;2.63;;;1.10;;
16640;SDS011;8434;47.990;7.880;2024-02-21T11:51:21;2.13;;;0.70;;
16640;SDS011;8434;47.990;7.880;2024-02-21T11:54:06;1.30;;;0.73;;
16640;SDS011;8434;47.990;7.880;2024-02-21T11:56:52;2.40;;;0.93;;
16640;SDS011;8434;47.990;7.880;2024-02-21T11:59:39;1.70;;;1.23;;
16640;SDS011;8434;47.990;7.880;2024-02-21T12:02:25;1.30;;;0.90;;
16640;SDS011;8434;47.990;7.880;2024-02-21T12:05:10;2.80;;;0.80;;
16640;SDS011;8434;47.990;7.880;2024-02-21T12:07:57;3.37;;;1.20;;
16640;SDS011;8434;47.990;7.880;2024-02-21T12:10:44;2.60;;;0.90;;
16640;SDS011;8434;47.990;7.880;2024-02-21T12:13:35;1.90;;;1.00;;
16640;SDS011;8434;47.990;7.880;2024-02-21T12:16:21;2.13;;;1.40;;
16640;SDS011;8434;47.990;7.880;2024-02-21T12:19:06;4.93;;;1.50;;
16640;SDS011;8434;47.990;7.880;2024-02-21T12:21:53;3.27;;;1.20;;
16640;SDS011;8434;47.990;7.880;2024-02-21T12:24:40;1.47;;;1.20;;
16640;SDS011;8434;47.990;7.880;2024-02-21T12:27:31;3.17;;;1.27;;
16640;SDS011;8434;47.990;7.880;2024-02-21T12:30:16;4.73;;;1.20;;
16640;SDS011;8434;47.990;7.880;2024-02-21T12:33:01;1.50;;;1.00;;
16640;SDS011;8434;47.990;7.880;2024-02-21T12:35:47;2.93;;;0.83;;
16640;SDS011;8434;47.990;7.880;2024-02-21T12:38:33;0.90;;;0.50;;
16640;SDS011;8434;47.990;7.880;2024-02-21T12:41:20;0.57;;;0.50;;
16640;SDS011;8434;47.990;7.880;2024-02-21T12:44:06;0.97;;;0.67;;
16640;SDS011;8434;47.990;7.880;2024-02-21T12:46:52;1.50;;;0.80;;
16640;SDS011;8434;47.990;7.880;2024-02-21T12:49:38;1.93;;;0.60;;
16640;SDS011;8434;47.990;7.880;2024-02-21T12:52:23;3.80;;;0.60;;
16640;SDS011;8434;47.990;7.880;2024-02-21T12:55:09;2.30;;;0.60;;
16640;SDS011;8434;47.990;7.880;2024-02-21T12:57:57;2.17;;;1.17;;
16640;SDS011;8434;47.990;7.880;2024-02-21T13:00:47;1.20;;;0.70;;
16640;SDS011;8434;47.990;7.880;2024-02-21T13:03:33;0.50;;;0.33;;
16640;SDS011;8434;47.990;7.880;2024-02-21T13:06:18;1.70;;;0.70;;
16640;SDS011;8434;47.990;7.880;2024-02-21T13:09:04;1.43;;;0.60;;
16640;SDS011;8434;47.990;7.880;2024-02-21T13:11:52;1.00;;;0.50;;
16640;SDS011;8434;47.990;7.880;2024-02-21T13:14:39;1.53;;;0.80;;
16640;SDS011;8434;47.990;7.880;2024-02-21T13:17:27;1.03;;;0.70;;
16640;SDS011;8434;47.990;7.880;2024-02-21T13:20:15;0.40;;;0.37;;
16640;SDS011;8434;47.990;7.880;2024-02-21T13:23:01;0.73;;;0.60;;
16640;SDS011;8434;47.990;7.880;2024-02-21T13:25:46;2.10;;;0.60;;
16640;SDS011;8434;47.990;7.880;2024-02-21T13:28:32;1.30;;;0.73;;
16640;SDS011;8434;47.990;7.880;2024-02-21T13:31:19;1.03;;;0.63;;
16640;SDS011;8434;47.990;7.880;2024-02-21T13:34:04;0.57;;;0.57;;
16640;SDS011;8434;47.990;7.880;2024-02-21T13:36:50;1.50;;;0.43;;
16640;SDS011;8434;47.990;7.880;2024-02-21T13:39:35;1.50;;;0.63;;
16640;SDS011;8434;47.990;7.880;2024-02-21T13:42:21;1.10;;;0.50;;
16640;SDS011;8434;47.990;7.880;2024-02-21T13:45:06;1.47;;;0.50;;
16640;SDS011;8434;47.990;7.880;2024-02-21T13:47:53;1.00;;;0.60;;
16640;SDS011;8434;47.990;7.880;2024-02-21T13:50:40;2.37;;;1.23;;
16640;SDS011;8434;47.990;7.880;2024-02-21T13:53:27;4.07;;;0.67;;
16640;SDS011;8434;47.990;7.880;2024-02-21T13:56:13;1.83;;;0.60;;
16640;SDS011;8434;47.990;7.880;2024-02-21T13:58:58;0.97;;;0.60;;
16640;SDS011;8434;47.990;7.880;2024-02-21T14:01:44;1.20;;;0.60;;
16640;SDS011;8434;47.990;7.880;2024-02-21T14:04:31;1.77;;;0.57;;
16640;SDS011;8434;47.990;7.880;2024-02-21T14:07:16;0.60;;;0.60;;
16640;SDS011;8434;47.990;7.880;2024-02-21T14:10:02;1.03;;;0.93;;
16640;SDS011;8434;47.990;7.880;2024-02-21T14:12:48;1.23;;;0.73;;
16640;SDS011;8434;47.990;7.880;2024-02-21T14:15:33;1.93;;;1.27;;
16640;SDS011;8434;47.990;7.880;2024-02-21T14:18:20;1.07;;;0.83;;
16640;SDS011;8434;47.990;7.880;2024-02-21T14:21:07;2.87;;;0.63;;
16640;SDS011;8434;47.990;7.880;2024-02-21T14:23:54;1.70;;;0.77;;
16640;SDS011;8434;47.990;7.880;2024-02-21T14:26:41;3.10;;;0.70;;
16640;SDS011;8434;47.990;7.880;2024-02-21T14:29:26;2.83;;;1.03;;
16640;SDS011;8434;47.990;7.880;2024-02-21T14:32:13;1.20;;;0.83;;
16640;SDS011;8434;47.990;7.880;2024-02-21T14:34:58;3.83;;;1.10;;
16640;SDS011;8434;47.990;7.880;2024-02-21T14:37:45;2.20;;;0.80;;
16640;SDS011;8434;47.990;7.880;2024-02-21T14:40:33;0.80;;;0.60;;
16640;SDS011;8434;47.990;7.880;2024-02-21T14:43:18;1.67;;;0.93;;
16640;SDS011;8434;47.990;7.880;2024-02-21T14:46:05;5.00;;;2.30;;
16640;SDS011;8434;47.990;7.880;2024-02-21T14:48:50;2.20;;;1.47;;
16640;SDS011;8434;47.990;7.880;2024-02-21T14:51:37;2.63;;;1.37;;
16640;SDS011;8434;47.990;7.880;2024-02-21T14:54:23;5.27;;;1.63;;
16640;SDS011;8434;47.990;7.880;2024-02-21T14:57:09;2.67;;;1.40;;
16640;SDS011;8434;47.990;7.880;2024-02-21T14:59:55;2.27;;;0.93;;
16640;SDS011;8434;47.990;7.880;2024-02-21T15:02:42;3.20;;;1.20;;
16640;SDS011;8434;47.990;7.880;2024-02-21T15:05:28;2.90;;;1.40;;
16640;SDS011;8434;47.990;7.880;2024-02-21T15:08:14;5.30;;;1.70;;
16640;SDS011;8434;47.990;7.880;2024-02-21T15:11:02;2.93;;;1.20;;
16640;SDS011;8434;47.990;7.880;2024-02-21T15:13:47;1.83;;;1.00;;
16640;SDS011;8434;47.990;7.880;2024-02-21T15:16:33;2.13;;;1.27;;
16640;SDS011;8434;47.990;7.880;2024-02-21T15:19:18;4.63;;;2.00;;
16640;SDS011;8434;47.990;7.880;2024-02-21T15:22:04;2.70;;;1.47;;
16640;SDS011;8434;47.990;7.880;2024-02-21T15:24:49;3.07;;;1.10;;
16640;SDS011;8434;47.990;7.880;2024-02-21T15:27:36;1.33;;;0.73;;
16640;SDS011;8434;47.990;7.880;2024-02-21T15:30:21;1.90;;;0.60;;
16640;SDS011;8434;47.990;7.880;2024-02-21T15:33:07;1.13;;;0.97;;
16640;SDS011;8434;47.990;7.880;2024-02-21T15:35:53;1.07;;;0.90;;
16640;SDS011;8434;47.990;7.880;2024-02-21T15:38:38;1.90;;;0.70;;
16640;SDS011;8434;47.990;7.880;2024-02-21T15:41:24;1.40;;;0.70;;
16640;SDS011;8434;47.990;7.880;2024-02-21T15:44:11;3.67;;;1.90;;
16640;SDS011;8434;47.990;7.880;2024-02-21T15:46:57;2.10;;;1.40;;
16640;SDS011;8434;47.990;7.880;2024-02-21T15:49:43;4.07;;;1.73;;
16640;SDS011;8434;47.990;7.880;2024-02-21T15:52:29;2.13;;;1.13;;
16640;SDS011;8434;47.990;7.880;2024-02-21T15:55:14;1.50;;;0.90;;
16640;SDS011;8434;47.990;7.880;2024-02-21T15:58:01;1.50;;;0.80;;
16640;SDS011;8434;47.990;7.880;2024-02-21T16:00:49;2.30;;;1.17;;
16640;SDS011;8434;47.990;7.880;2024-02-21T16:03:34;4.37;;;2.37;;
16640;SDS011;8434;47.990;7.880;2024-02-21T16:06:20;2.87;;;1.77;;
16640;SDS011;8434;47.990;7.880;2024-02-21T16:09:07;3.77;;;2.33;;
16640;SDS011;8434;47.990;7.880;2024-02-21T16:11:53;2.27;;;1.70;;
16640;SDS011;8434;47.990;7.880;2024-02-21T16:14:38;2.43;;;1.53;;
16640;SDS011;8434;47.990;7.880;2024-02-21T16:17:25;1.30;;;1.20;;
16640;SDS011;8434;47.990;7.880;2024-02-21T16:20:10;2.90;;;1.60;;
16640;SDS011;8434;47.990;7.880;2024-02-21T16:22:59;7.67;;;2.97;;
16640;SDS011;8434;47.990;7.880;2024-02-21T16:25:47;4.67;;;1.90;;
16640;SDS011;8434;47.990;7.880;2024-02-21T16:28:32;3.23;;;1.80;;
16640;SDS011;8434;47.990;7.880;2024-02-21T16:31:18;3.33;;;1.60;;
16640;SDS011;8434;47.990;7.880;2024-02-21T16:34:05;4.87;;;2.00;;
16640;SDS011;8434;47.990;7.880;2024-02-21T16:36:51;3.13;;;1.53;;
16640;SDS011;8434;47.990;7.880;2024-02-21T16:39:36;3.10;;;1.83;;
16640;SDS011;8434;47.990;7.880;2024-02-21T16:42:22;4.07;;;1.10;;
16640;SDS011;8434;47.990;7.880;2024-02-21T16:45:08;4.27;;;0.90;;
16640;SDS011;8434;47.990;7.880;2024-02-21T16:47:53;1.83;;;0.90;;
16640;SDS011;8434;47.990;7.880;2024-02-21T16:50:41;0.80;;;0.70;;
16640;SDS011;8434;47.990;7.880;2024-02-21T16:53:26;0.93;;;0.73;;
16640;SDS011;8434;47.990;7.880;2024-02-21T16:56:12;3.67;;;1.73;;
16640;SDS011;8434;47.990;7.880;2024-02-21T16:58:57;2.77;;;1.50;;